sensor_id;sensor_type;location;lat;lon;timestamp;pressure;altitude;pressure_sealevel;temperature;humidity
68506;BME280;55509;50.680;17.942;2023-02-23T00:01:37;99787.49;;;1.25;76.90
68506;BME280;55509;50.680;17.942;2023-02-23T00:05:08;99785.88;;;1.21;77.14
68506;BME280;55509;50.680;17.942;2023-02-23T00:08:18;99782.39;;;1.19;77.32
68506;BME280;55509;50.680;17.942;2023-02-23T00:11:42;99782.54;;;1.16;77.03
68506;BME280;55509;50.680;17.942;2023-02-23T00:22:17;99778.64;;;1.08;77.78
68506;BME280;55509;50.680;17.942;2023-02-23T00:47:15;99765.69;;;0.83;78.61
68506;BME280;55509;50.680;17.942;2023-02-23T00:50:30;99764.05;;;0.77;79.12
68506;BME280;55509;50.680;17.942;2023-02-23T00:53:46;99765.41;;;0.74;78.98
68506;BME280;55509;50.680;17.942;2023-02-23T01:00:39;99766.34;;;0.67;79.59
68506;BME280;55509;50.680;17.942;2023-02-23T01:03:48;99766.30;;;0.64;79.90
68506;BME280;55509;50.680;17.942;2023-02-23T01:07:06;99763.85;;;0.62;79.90
68506;BME280;55509;50.680;17.942;2023-02-23T01:10:34;99761.89;;;0.58;80.32
68506;BME280;55509;50.680;17.942;2023-02-23T01:17:24;99753.58;;;0.57;80.74
68506;BME280;55509;50.680;17.942;2023-02-23T01:20:44;99754.07;;;0.55;80.82
68506;BME280;55509;50.680;17.942;2023-02-23T01:24:06;99754.73;;;0.53;80.75
68506;BME280;55509;50.680;17.942;2023-02-23T01:27:12;99755.70;;;0.48;80.85
68506;BME280;55509;50.680;17.942;2023-02-23T01:37:01;99751.05;;;0.38;81.53
68506;BME280;55509;50.680;17.942;2023-02-23T01:40:16;99742.38;;;0.35;81.14
68506;BME280;55509;50.680;17.942;2023-02-23T01:47:26;99741.71;;;0.25;82.17
68506;BME280;55509;50.680;17.942;2023-02-23T01:54:18;99734.08;;;0.23;82.20
68506;BME280;55509;50.680;17.942;2023-02-23T02:01:09;99727.44;;;0.19;82.36
68506;BME280;55509;50.680;17.942;2023-02-23T02:04:42;99730.00;;;0.16;82.50
68506;BME280;55509;50.680;17.942;2023-02-23T02:07:52;99723.37;;;0.11;82.82
68506;BME280;55509;50.680;17.942;2023-02-23T02:11:16;99715.02;;;0.09;82.69
68506;BME280;55509;50.680;17.942;2023-02-23T02:14:47;99716.04;;;0.07;83.27
68506;BME280;55509;50.680;17.942;2023-02-23T02:40:44;99714.55;;;-0.10;84.14
68506;BME280;55509;50.680;17.942;2023-02-23T02:43:47;99709.14;;;-0.14;84.36
68506;BME280;55509;50.680;17.942;2023-02-23T02:53:57;99708.77;;;-0.16;84.25
68506;BME280;55509;50.680;17.942;2023-02-23T02:57:30;99712.05;;;-0.16;84.50
68506;BME280;55509;50.680;17.942;2023-02-23T03:00:54;99708.26;;;-0.15;84.96
68506;BME280;55509;50.680;17.942;2023-02-23T03:04:48;99709.26;;;-0.18;84.85
68506;BME280;55509;50.680;17.942;2023-02-23T03:12:08;99711.23;;;-0.24;85.01
68506;BME280;55509;50.680;17.942;2023-02-23T03:19:47;99711.02;;;-0.26;85.13
68506;BME280;55509;50.680;17.942;2023-02-23T03:26:54;99711.64;;;-0.32;85.13
68506;BME280;55509;50.680;17.942;2023-02-23T03:37:55;99711.16;;;-0.38;85.26
68506;BME280;55509;50.680;17.942;2023-02-23T03:41:27;99712.17;;;-0.40;85.63
68506;BME280;55509;50.680;17.942;2023-02-23T03:45:11;99715.61;;;-0.41;85.66
68506;BME280;55509;50.680;17.942;2023-02-23T03:48:51;99708.65;;;-0.44;85.81
68506;BME280;55509;50.680;17.942;2023-02-23T03:56:01;99708.61;;;-0.47;85.84
68506;BME280;55509;50.680;17.942;2023-02-23T03:59:31;99710.14;;;-0.48;86.09
68506;BME280;55509;50.680;17.942;2023-02-23T04:03:03;99710.84;;;-0.48;85.67
68506;BME280;55509;50.680;17.942;2023-02-23T04:06:30;99712.92;;;-0.47;85.65
68506;BME280;55509;50.680;17.942;2023-02-23T04:10:00;99715.17;;;-0.47;85.52
68506;BME280;55509;50.680;17.942;2023-02-23T04:13:24;99714.25;;;-0.50;85.56
68506;BME280;55509;50.680;17.942;2023-02-23T04:16:49;99711.81;;;-0.51;85.98
68506;BME280;55509;50.680;17.942;2023-02-23T04:19:57;99709.61;;;-0.49;85.50
68506;BME280;55509;50.680;17.942;2023-02-23T04:30:25;99711.61;;;-0.53;85.71
68506;BME280;55509;50.680;17.942;2023-02-23T04:37:39;99711.89;;;-0.57;85.57
68506;BME280;55509;50.680;17.942;2023-02-23T04:47:56;99705.86;;;-0.56;85.41
68506;BME280;55509;50.680;17.942;2023-02-23T04:54:52;99705.61;;;-0.61;85.31
68506;BME280;55509;50.680;17.942;2023-02-23T05:08:55;99707.33;;;-0.61;85.14
68506;BME280;55509;50.680;17.942;2023-02-23T05:15:54;99703.48;;;-0.64;85.18
68506;BME280;55509;50.680;17.942;2023-02-23T05:26:11;99706.36;;;-0.68;85.28
68506;BME280;55509;50.680;17.942;2023-02-23T05:32:42;99700.67;;;-0.66;85.35
68506;BME280;55509;50.680;17.942;2023-02-23T05:43:31;99702.56;;;-0.67;85.51
68506;BME280;55509;50.680;17.942;2023-02-23T05:50:08;99700.18;;;-0.65;85.46
68506;BME280;55509;50.680;17.942;2023-02-23T06:04:39;99707.77;;;-0.56;84.72
68506;BME280;55509;50.680;17.942;2023-02-23T06:11:13;99709.13;;;-0.47;84.60
68506;BME280;55509;50.680;17.942;2023-02-23T06:17:41;99713.58;;;-0.40;84.26
68506;BME280;55509;50.680;17.942;2023-02-23T06:31:33;99723.92;;;-0.08;83.10
68506;BME280;55509;50.680;17.942;2023-02-23T06:38:14;99715.57;;;0.12;82.47
68506;BME280;55509;50.680;17.942;2023-02-23T06:41:45;99718.01;;;0.24;82.10
68506;BME280;55509;50.680;17.942;2023-02-23T06:44:56;99716.63;;;0.36;81.64
68506;BME280;55509;50.680;17.942;2023-02-23T06:48:14;99713.50;;;0.49;81.13
68506;BME280;55509;50.680;17.942;2023-02-23T06:55:12;99717.83;;;0.76;81.14
68506;BME280;55509;50.680;17.942;2023-02-23T06:58:14;99715.95;;;0.93;80.75
68506;BME280;55509;50.680;17.942;2023-02-23T07:01:33;99713.02;;;1.11;80.02
68506;BME280;55509;50.680;17.942;2023-02-23T07:04:43;99708.70;;;1.30;79.31
68506;BME280;55509;50.680;17.942;2023-02-23T07:07:44;99709.20;;;1.45;78.26
68506;BME280;55509;50.680;17.942;2023-02-23T07:10:46;99707.55;;;1.53;77.63
68506;BME280;55509;50.680;17.942;2023-02-23T07:13:48;99707.79;;;1.62;77.51
68506;BME280;55509;50.680;17.942;2023-02-23T07:16:49;99702.52;;;1.75;77.09
68506;BME280;55509;50.680;17.942;2023-02-23T07:19:51;99700.05;;;1.93;77.10
68506;BME280;55509;50.680;17.942;2023-02-23T07:22:52;99695.56;;;2.20;76.35
68506;BME280;55509;50.680;17.942;2023-02-23T07:25:55;99695.73;;;2.52;75.59
68506;BME280;55509;50.680;17.942;2023-02-23T07:28:57;99694.48;;;2.85;74.20
68506;BME280;55509;50.680;17.942;2023-02-23T07:31:58;99690.21;;;3.10;72.93
68506;BME280;55509;50.680;17.942;2023-02-23T07:35:00;99691.61;;;3.20;72.20
68506;BME280;55509;50.680;17.942;2023-02-23T07:38:01;99689.55;;;3.28;72.28
68506;BME280;55509;50.680;17.942;2023-02-23T07:41:04;99687.30;;;3.40;71.33
68506;BME280;55509;50.680;17.942;2023-02-23T07:44:06;99680.70;;;3.66;70.84
68506;BME280;55509;50.680;17.942;2023-02-23T07:47:08;99683.66;;;3.74;70.14
68506;BME280;55509;50.680;17.942;2023-02-23T07:50:09;99677.74;;;3.84;69.82
68506;BME280;55509;50.680;17.942;2023-02-23T07:53:12;99677.41;;;3.87;69.67
68506;BME280;55509;50.680;17.942;2023-02-23T07:56:14;99674.27;;;3.89;69.65
68506;BME280;55509;50.680;17.942;2023-02-23T07:59:16;99672.50;;;4.02;69.53
68506;BME280;55509;50.680;17.942;2023-02-23T08:02:17;99671.08;;;4.24;68.51
68506;BME280;55509;50.680;17.942;2023-02-23T08:05:19;99668.78;;;4.33;67.76
68506;BME280;55509;50.680;17.942;2023-02-23T08:08:20;99672.06;;;4.43;67.80
68506;BME280;55509;50.680;17.942;2023-02-23T08:11:22;99672.88;;;4.60;67.13
68506;BME280;55509;50.680;17.942;2023-02-23T08:14:24;99671.05;;;4.78;67.16
68506;BME280;55509;50.680;17.942;2023-02-23T08:17:25;99672.44;;;5.13;66.68
68506;BME280;55509;50.680;17.942;2023-02-23T08:20:27;99664.30;;;5.74;65.11
68506;BME280;55509;50.680;17.942;2023-02-23T08:23:30;99662.64;;;6.55;64.02
68506;BME280;55509;50.680;17.942;2023-02-23T08:26:33;99658.20;;;7.59;60.57
68506;BME280;55509;50.680;17.942;2023-02-23T08:29:35;99655.50;;;8.52;58.38
68506;BME280;55509;50.680;17.942;2023-02-23T08:32:37;99649.89;;;9.34;56.05
68506;BME280;55509;50.680;17.942;2023-02-23T08:35:38;99644.61;;;10.12;53.39
68506;BME280;55509;50.680;17.942;2023-02-23T08:38:39;99644.90;;;10.85;50.80
68506;BME280;55509;50.680;17.942;2023-02-23T08:41:41;99641.98;;;11.40;50.58
68506;BME280;55509;50.680;17.942;2023-02-23T08:44:42;99639.78;;;12.01;48.68
68506;BME280;55509;50.680;17.942;2023-02-23T08:47:45;99638.55;;;12.51;48.04
68506;BME280;55509;50.680;17.942;2023-02-23T08:50:46;99634.07;;;13.00;46.10
68506;BME280;55509;50.680;17.942;2023-02-23T08:53:50;99628.90;;;13.37;45.86
68506;BME280;55509;50.680;17.942;2023-02-23T08:56:54;99628.25;;;13.88;43.59
68506;BME280;55509;50.680;17.942;2023-02-23T08:59:55;99625.88;;;13.94;41.88
68506;BME280;55509;50.680;17.942;2023-02-23T09:02:57;99625.92;;;13.76;42.72
68506;BME280;55509;50.680;17.942;2023-02-23T09:06:03;99625.50;;;13.82;43.00
68506;BME280;55509;50.680;17.942;2023-02-23T09:09:05;99624.95;;;13.78;41.89
68506;BME280;55509;50.680;17.942;2023-02-23T09:12:07;99623.59;;;13.42;41.73
68506;BME280;55509;50.680;17.942;2023-02-23T09:15:09;99625.71;;;12.88;42.54
68506;BME280;55509;50.680;17.942;2023-02-23T09:18:10;99624.94;;;12.52;43.43
68506;BME280;55509;50.680;17.942;2023-02-23T09:21:15;99626.54;;;12.56;43.85
68506;BME280;55509;50.680;17.942;2023-02-23T09:24:22;99622.10;;;12.62;43.56
68506;BME280;55509;50.680;17.942;2023-02-23T09:27:23;99623.45;;;12.78;43.83
68506;BME280;55509;50.680;17.942;2023-02-23T09:30:25;99621.27;;;12.70;43.41
68506;BME280;55509;50.680;17.942;2023-02-23T09:33:27;99618.23;;;12.37;43.59
68506;BME280;55509;50.680;17.942;2023-02-23T09:36:29;99616.14;;;12.17;43.78
68506;BME280;55509;50.680;17.942;2023-02-23T09:39:31;99620.49;;;12.09;44.46
68506;BME280;55509;50.680;17.942;2023-02-23T09:42:39;99617.85;;;12.19;44.64
68506;BME280;55509;50.680;17.942;2023-02-23T09:45:50;99615.52;;;12.40;44.04
68506;BME280;55509;50.680;17.942;2023-02-23T09:48:55;99608.48;;;12.53;43.10
68506;BME280;55509;50.680;17.942;2023-02-23T09:51:57;99614.69;;;12.81;43.10
68506;BME280;55509;50.680;17.942;2023-02-23T09:55:00;99608.02;;;13.21;42.69
68506;BME280;55509;50.680;17.942;2023-02-23T09:58:04;99606.50;;;13.54;41.83
68506;BME280;55509;50.680;17.942;2023-02-23T10:13:30;99593.48;;;16.02;37.59
68506;BME280;55509;50.680;17.942;2023-02-23T10:22:41;99585.38;;;15.00;39.19
68506;BME280;55509;50.680;17.942;2023-02-23T10:25:45;99576.96;;;15.06;39.00
68506;BME280;55509;50.680;17.942;2023-02-23T10:28:47;99570.94;;;15.24;38.28
68506;BME280;55509;50.680;17.942;2023-02-23T10:31:51;99569.57;;;15.48;37.79
68506;BME280;55509;50.680;17.942;2023-02-23T10:34:54;99564.52;;;15.86;37.37
68506;BME280;55509;50.680;17.942;2023-02-23T10:37:56;99559.38;;;16.13;36.92
68506;BME280;55509;50.680;17.942;2023-02-23T10:41:00;99557.96;;;16.36;36.62
68506;BME280;55509;50.680;17.942;2023-02-23T10:44:03;99557.70;;;16.70;36.47
68506;BME280;55509;50.680;17.942;2023-02-23T10:47:07;99544.83;;;17.51;35.56
68506;BME280;55509;50.680;17.942;2023-02-23T10:50:09;99538.13;;;18.53;34.52
68506;BME280;55509;50.680;17.942;2023-02-23T10:53:15;99527.85;;;19.11;33.16
68506;BME280;55509;50.680;17.942;2023-02-23T10:56:18;99530.23;;;19.29;32.47
68506;BME280;55509;50.680;17.942;2023-02-23T10:59:21;99520.16;;;19.17;32.10
68506;BME280;55509;50.680;17.942;2023-02-23T11:02:23;99518.27;;;19.29;32.02
68506;BME280;55509;50.680;17.942;2023-02-23T11:08:34;99510.56;;;19.35;31.32
68506;BME280;55509;50.680;17.942;2023-02-23T11:11:36;99506.68;;;19.24;31.62
68506;BME280;55509;50.680;17.942;2023-02-23T11:14:37;99499.52;;;18.89;31.35
68506;BME280;55509;50.680;17.942;2023-02-23T11:17:39;99496.84;;;18.61;32.13
68506;BME280;55509;50.680;17.942;2023-02-23T11:20:41;99495.43;;;18.33;32.95
68506;BME280;55509;50.680;17.942;2023-02-23T11:23:43;99489.16;;;18.28;32.91
68506;BME280;55509;50.680;17.942;2023-02-23T11:26:45;99489.66;;;18.19;33.30
68506;BME280;55509;50.680;17.942;2023-02-23T11:29:48;99483.88;;;17.97;33.50
68506;BME280;55509;50.680;17.942;2023-02-23T11:32:52;99479.51;;;17.82;33.59
68506;BME280;55509;50.680;17.942;2023-02-23T11:35:58;99482.94;;;17.58;34.03
68506;BME280;55509;50.680;17.942;2023-02-23T11:42:35;99481.02;;;16.71;35.65
68506;BME280;55509;50.680;17.942;2023-02-23T11:51:49;99475.33;;;15.89;37.54
68506;BME280;55509;50.680;17.942;2023-02-23T11:55:02;99469.97;;;15.86;38.41
68506;BME280;55509;50.680;17.942;2023-02-23T11:58:09;99467.85;;;16.04;38.25
68506;BME280;55509;50.680;17.942;2023-02-23T12:01:12;99465.58;;;16.13;37.70
68506;BME280;55509;50.680;17.942;2023-02-23T12:10:48;99447.75;;;16.65;36.90
68506;BME280;55509;50.680;17.942;2023-02-23T12:14:01;99438.93;;;16.74;36.45
68506;BME280;55509;50.680;17.942;2023-02-23T12:20:26;99435.18;;;16.77;36.10
68506;BME280;55509;50.680;17.942;2023-02-23T12:23:29;99431.46;;;16.65;36.53
68506;BME280;55509;50.680;17.942;2023-02-23T12:26:36;99427.55;;;16.46;37.07
68506;BME280;55509;50.680;17.942;2023-02-23T12:29:55;99422.27;;;16.23;37.34
68506;BME280;55509;50.680;17.942;2023-02-23T12:33:04;99420.19;;;16.06;37.86
68506;BME280;55509;50.680;17.942;2023-02-23T12:42:29;99416.60;;;15.67;38.97
68506;BME280;55509;50.680;17.942;2023-02-23T12:45:48;99417.89;;;15.35;39.41
68506;BME280;55509;50.680;17.942;2023-02-23T12:52:15;99408.47;;;14.80;40.97
68506;BME280;55509;50.680;17.942;2023-02-23T12:55:20;99405.68;;;14.75;41.66
68506;BME280;55509;50.680;17.942;2023-02-23T12:58:49;99398.71;;;14.62;42.06
68506;BME280;55509;50.680;17.942;2023-02-23T13:01:54;99397.65;;;14.28;42.84
68506;BME280;55509;50.680;17.942;2023-02-23T13:05:19;99394.09;;;14.14;43.44
68506;BME280;55509;50.680;17.942;2023-02-23T13:27:15;99371.56;;;13.42;46.06
68506;BME280;55509;50.680;17.942;2023-02-23T13:30:19;99370.92;;;13.28;46.78
68506;BME280;55509;50.680;17.942;2023-02-23T13:33:25;99367.00;;;13.09;47.38
68506;BME280;55509;50.680;17.942;2023-02-23T13:36:28;99366.17;;;13.08;47.85
68506;BME280;55509;50.680;17.942;2023-02-23T13:42:58;99365.32;;;12.99;48.44
68506;BME280;55509;50.680;17.942;2023-02-23T13:46:51;99361.35;;;13.01;48.55
68506;BME280;55509;50.680;17.942;2023-02-23T13:52:37;99352.22;;;12.92;49.14
68506;BME280;55509;50.680;17.942;2023-02-23T13:55:47;99349.69;;;12.89;49.29
68506;BME280;55509;50.680;17.942;2023-02-23T13:58:51;99345.38;;;12.78;49.94
68506;BME280;55509;50.680;17.942;2023-02-23T14:01:54;99344.16;;;12.65;50.25
68506;BME280;55509;50.680;17.942;2023-02-23T14:04:56;99344.98;;;12.50;50.47
68506;BME280;55509;50.680;17.942;2023-02-23T14:08:02;99339.83;;;12.33;51.31
